OPA Logo
 
ASOS:
At:2019.12.09 1315 UTC
Wind:200° @ 7KT
Viz: 10 mile(s)
Sky: mostly clear
Temp: 32 F (0 C)
DewP: 24 F (-4 C):1
RH: 30 F (-1 C)
Baro: 30 F (-1 C)
ob: KBDN 091315Z AUTO 20007KT 10SM FEW028 M00/M01 A3016 RMK AO2

ASOS: KRDM
At:2019.12.09 1256 UTC
Wind:160° @ 5KT
Viz: 10 mile(s)
Sky: clear
Temp: 30.9 F (-0.6 C)
DewP: 24 F (-4 C):1
RH: 28.0 F (-2.2 C)
Baro: 28.0 F (-2.2 C)
ob: KRDM 091256Z 16005KT 10SM CLR M01/M02 A3016 RMK AO2 SLP229 T10061022
Apache-SSL Logo

Valid HTML 4.01!

Central Oregon OPA Chapter

Chapter Officers 2006:

President
Gary E. Miller
109 NW Wilmington Ave.
Bend OR 97701
541 382-8588
gem@rellim.com

Vice President:
Open

Secretary/Treasurer:
Don Wilfong
210 SE Cessna Dr
Bend OR 97702
541 389-1456
dwnw@bendbroadband.com


Web page by: gem@rellim.com